Terminal Aerodrome Forecast
Issued by NWS

Home | Current Version | Previous Version | Text Only | Print | Product List | Glossary On
Versions: 1 2 3 4 5 6 7 8 9 10 11 12 13 14 15
000
FTUS45 KGJT 251728
TAFEGE
TAF
KEGE 251728Z 2518/2618 VRB03KT P6SM SKC
     FM251930 31008G20KT P6SM SKC
     FM260200 02010G15KT P6SM SKC
     FM260700 VRB03KT P6SM SKC=

USA.gov is the U.S. government's official web portal to all federal, state and local government web resources and services.